createdAt,value
2018-01-18T00:01:30.819Z,0.10
2018-01-18T00:03:58.419Z,0.10
2018-01-18T00:06:26.766Z,0.10
2018-01-18T00:08:54.351Z,0.10
2018-01-18T00:11:21.948Z,0.10
2018-01-18T00:13:49.541Z,0.10
2018-01-18T00:16:17.147Z,0.10
2018-01-18T00:18:44.740Z,0.10
2018-01-18T00:21:12.325Z,0.10
2018-01-18T00:23:39.920Z,0.20
2018-01-18T00:26:07.520Z,0.20
2018-01-18T00:28:35.870Z,0.20
2018-01-18T00:31:03.455Z,0.20
2018-01-18T00:33:31.836Z,0.20
2018-01-18T00:35:59.476Z,0.20
2018-01-18T00:38:27.062Z,0.20
2018-01-18T00:40:54.654Z,0.20
2018-01-18T00:43:22.262Z,0.10
2018-01-18T00:45:49.855Z,0.20
2018-01-18T00:48:17.445Z,0.20
2018-01-18T00:50:45.811Z,0.20
2018-01-18T00:53:14.168Z,0.20
2018-01-18T00:55:41.768Z,0.20
2018-01-18T00:58:09.388Z,0.20
2018-01-18T01:00:36.982Z,0.30
2018-01-18T01:03:04.576Z,0.20
2018-01-18T01:05:32.926Z,0.30
2018-01-18T01:08:00.525Z,0.30
2018-01-18T01:10:28.103Z,0.20
2018-01-18T01:12:55.687Z,0.20
2018-01-18T01:15:23.279Z,0.20
2018-01-18T01:17:50.868Z,0.10
2018-01-18T01:20:19.231Z,0.10
2018-01-18T01:22:46.870Z,0.10
2018-01-18T01:25:14.445Z,0.10
2018-01-18T01:27:42.038Z,0.10
2018-01-18T01:30:09.638Z,0.10
2018-01-18T01:32:37.215Z,0.20
2018-01-18T01:35:04.819Z,0.20
2018-01-18T01:37:32.424Z,0.30
2018-01-18T01:40:00.030Z,0.30
2018-01-18T01:42:27.644Z,0.30
2018-01-18T01:44:55.271Z,0.20
2018-01-18T01:47:22.878Z,0.20
2018-01-18T01:49:50.478Z,0.30
2018-01-18T01:52:18.187Z,0.30
2018-01-18T01:54:45.779Z,0.40
2018-01-18T01:57:13.429Z,0.40
2018-01-18T01:59:41.052Z,0.40
2018-01-18T02:02:08.663Z,0.50
2018-01-18T02:04:36.261Z,0.50
2018-01-18T02:07:03.877Z,0.50
2018-01-18T02:09:31.480Z,0.50
2018-01-18T02:11:59.771Z,0.50
2018-01-18T02:14:27.451Z,0.40
2018-01-18T02:16:55.112Z,0.40
2018-01-18T02:19:22.710Z,0.30
2018-01-18T02:21:50.429Z,0.30
2018-01-18T02:24:18.716Z,0.30
2018-01-18T02:26:46.303Z,0.40
2018-01-18T02:29:14.552Z,0.40
2018-01-18T02:31:42.162Z,0.40
2018-01-18T02:34:09.738Z,0.40
2018-01-18T02:36:37.339Z,0.40
2018-01-18T02:39:04.982Z,0.30
2018-01-18T02:41:33.382Z,0.30
2018-01-18T02:44:01.016Z,0.30
2018-01-18T02:46:28.612Z,0.30
2018-01-18T02:48:56.255Z,0.30
2018-01-18T02:51:23.921Z,0.30
2018-01-18T02:53:51.520Z,0.40
2018-01-18T02:56:19.113Z,0.40
2018-01-18T02:58:46.708Z,0.40
2018-01-18T03:01:14.331Z,0.40
2018-01-18T03:03:41.927Z,0.40
2018-01-18T03:06:09.527Z,0.40
2018-01-18T03:08:37.134Z,0.40
2018-01-18T03:11:04.723Z,0.40
2018-01-18T03:13:33.115Z,0.40
2018-01-18T03:16:00.715Z,0.40
2018-01-18T03:18:28.590Z,0.40
2018-01-18T03:20:56.188Z,0.40
2018-01-18T03:23:23.775Z,0.40
2018-01-18T03:25:51.359Z,0.40
2018-01-18T03:28:18.946Z,0.30
2018-01-18T03:30:46.608Z,0.30
2018-01-18T03:33:14.951Z,0.30
2018-01-18T03:35:42.551Z,0.20
2018-01-18T03:38:10.950Z,0.30
2018-01-18T03:40:38.579Z,0.30
2018-01-18T03:43:06.207Z,0.20
2018-01-18T03:45:33.817Z,0.10
2018-01-18T03:48:01.417Z,0.10
2018-01-18T03:50:29.033Z,0.10
2018-01-18T03:52:56.643Z,0.00
2018-01-18T03:55:24.241Z,-0.10
2018-01-18T03:57:51.834Z,-0.10
2018-01-18T04:00:19.425Z,-0.10
2018-01-18T04:02:47.022Z,0.00
2018-01-18T04:05:14.614Z,0.00
2018-01-18T04:07:42.336Z,0.00
2018-01-18T04:10:09.999Z,0.00
2018-01-18T04:12:37.594Z,0.00
2018-01-18T04:15:05.192Z,-0.10
2018-01-18T04:17:32.786Z,-0.20
2018-01-18T04:20:00.434Z,-0.20
2018-01-18T04:22:28.023Z,-0.30
2018-01-18T04:24:55.624Z,-0.40
2018-01-18T04:27:23.211Z,-0.40
2018-01-18T04:29:50.806Z,-0.50
2018-01-18T04:32:19.171Z,-0.40
2018-01-18T04:34:46.765Z,-0.40
2018-01-18T04:37:14.359Z,-0.50
2018-01-18T04:39:41.964Z,-0.40
2018-01-18T04:42:09.563Z,-0.40
2018-01-18T04:44:37.153Z,-0.40
2018-01-18T04:47:04.756Z,-0.40
2018-01-18T04:49:32.408Z,-0.40
2018-01-18T04:52:00.020Z,-0.40
2018-01-18T04:54:27.614Z,-0.50
2018-01-18T04:56:55.247Z,-0.50
2018-01-18T04:59:22.855Z,-0.50
2018-01-18T05:01:50.452Z,-0.50
2018-01-18T05:04:18.069Z,-0.60
2018-01-18T05:06:46.462Z,-0.60
2018-01-18T05:09:14.117Z,-0.70
2018-01-18T05:11:41.701Z,-0.70
2018-01-18T05:14:09.286Z,-0.80
2018-01-18T05:16:36.916Z,-0.80
2018-01-18T05:19:04.622Z,-0.90
2018-01-18T05:21:32.223Z,-0.90
2018-01-18T05:23:59.816Z,-1.00
2018-01-18T05:26:27.411Z,-1.00
2018-01-18T05:28:55.016Z,-1.00
2018-01-18T05:31:22.612Z,-1.10
2018-01-18T05:33:50.202Z,-1.10
2018-01-18T05:36:17.794Z,-1.10
2018-01-18T05:38:46.166Z,-1.10
2018-01-18T05:41:13.819Z,-1.10
2018-01-18T05:43:41.416Z,-1.00
2018-01-18T05:46:09.027Z,-1.10
2018-01-18T05:48:36.614Z,-1.10
2018-01-18T05:51:04.210Z,-1.10
2018-01-18T05:53:32.562Z,-1.20
2018-01-18T05:56:00.204Z,-1.20
2018-01-18T05:58:27.777Z,-1.30
2018-01-18T06:00:55.375Z,-1.40
2018-01-18T06:03:23.775Z,-1.50
2018-01-18T06:05:52.140Z,-1.50
2018-01-18T06:08:20.527Z,-1.50
2018-01-18T06:10:48.920Z,-1.50
2018-01-18T06:13:17.282Z,-1.30
2018-01-18T06:15:44.878Z,-1.30
2018-01-18T06:18:12.471Z,-1.30
2018-01-18T06:20:40.059Z,-1.20
2018-01-18T06:23:07.675Z,-1.10
2018-01-18T06:25:35.266Z,-1.20
2018-01-18T06:28:02.862Z,-1.20
2018-01-18T06:30:30.458Z,-1.10
2018-01-18T06:32:58.039Z,-1.00
2018-01-18T06:35:25.640Z,-1.00
2018-01-18T06:37:53.239Z,-0.90
2018-01-18T06:40:21.648Z,-0.80
2018-01-18T06:42:49.446Z,-0.80
2018-01-18T06:45:17.035Z,-0.70
2018-01-18T06:47:44.628Z,-0.70
2018-01-18T06:50:12.998Z,-0.70
2018-01-18T06:52:40.640Z,-0.70
2018-01-18T06:55:08.234Z,-0.70
2018-01-18T06:57:36.602Z,-0.60
2018-01-18T07:00:04.248Z,-0.60
2018-01-18T07:02:31.846Z,-0.50
2018-01-18T07:04:59.438Z,-0.50
2018-01-18T07:07:27.025Z,-0.50
2018-01-18T07:09:54.722Z,-0.50
2018-01-18T07:12:22.342Z,-0.50
2018-01-18T07:14:49.931Z,-0.50
2018-01-18T07:17:17.522Z,-0.50
2018-01-18T07:19:45.110Z,-0.40
2018-01-18T07:22:12.702Z,-0.30
2018-01-18T07:24:40.343Z,-0.30
2018-01-18T07:27:08.699Z,-0.30
2018-01-18T07:29:36.294Z,-0.40
2018-01-18T07:32:04.648Z,-0.30
2018-01-18T07:34:32.242Z,-0.30
2018-01-18T07:36:59.831Z,-0.30
2018-01-18T07:39:27.442Z,-0.30
2018-01-18T07:41:55.031Z,-0.30
2018-01-18T07:44:22.634Z,-0.20
2018-01-18T07:46:50.245Z,-0.20
2018-01-18T07:49:17.822Z,-0.10
2018-01-18T07:51:46.174Z,0.00
2018-01-18T07:54:14.008Z,0.00
2018-01-18T07:56:42.383Z,0.10
2018-01-18T07:59:09.998Z,0.10
2018-01-18T08:01:37.585Z,0.20
2018-01-18T08:04:11.772Z,0.30
2018-01-18T08:06:39.395Z,0.30
2018-01-18T08:09:06.990Z,0.30
2018-01-18T08:11:34.576Z,0.30
2018-01-18T08:14:02.172Z,0.40
2018-01-18T08:16:29.762Z,0.40
2018-01-18T08:18:57.353Z,0.50
2018-01-18T08:21:24.947Z,0.50
2018-01-18T08:23:53.318Z,0.50
2018-01-18T08:26:20.946Z,0.50
2018-01-18T08:28:48.526Z,0.60
2018-01-18T08:31:16.132Z,0.60
2018-01-18T08:33:44.486Z,0.60
2018-01-18T08:36:12.068Z,0.60
2018-01-18T08:38:39.660Z,0.70
2018-01-18T08:41:07.252Z,0.60
2018-01-18T08:43:34.853Z,0.60
2018-01-18T08:46:02.454Z,0.60
2018-01-18T08:48:30.047Z,0.60
2018-01-18T08:50:57.635Z,0.60
2018-01-18T08:53:25.220Z,0.60
2018-01-18T08:55:52.827Z,0.60
2018-01-18T08:58:20.429Z,0.60
2018-01-18T09:00:48.042Z,0.60
2018-01-18T09:03:16.392Z,0.70
2018-01-18T09:05:43.993Z,0.70
2018-01-18T09:08:11.588Z,0.80
2018-01-18T09:10:39.175Z,0.80
2018-01-18T09:13:06.798Z,0.80
2018-01-18T09:15:34.388Z,0.80
2018-01-18T09:18:02.047Z,0.90
2018-01-18T09:20:29.638Z,0.90
2018-01-18T09:22:57.247Z,0.90
2018-01-18T09:25:24.832Z,1.00
2018-01-18T09:27:52.418Z,1.00
2018-01-18T09:30:20.017Z,1.00
2018-01-18T09:32:47.616Z,1.00
2018-01-18T09:35:15.207Z,1.10
2018-01-18T09:37:42.799Z,1.10
2018-01-18T09:40:10.394Z,1.00
2018-01-18T09:42:38.754Z,1.00
2018-01-18T09:45:06.338Z,1.00
2018-01-18T09:47:34.706Z,0.90
2018-01-18T09:50:03.074Z,0.90
2018-01-18T09:52:30.667Z,0.90
2018-01-18T09:54:59.014Z,0.90
2018-01-18T09:57:26.610Z,0.90
2018-01-18T09:59:54.954Z,0.90
2018-01-18T10:02:22.587Z,0.90
2018-01-18T10:04:50.175Z,0.90
2018-01-18T10:07:17.757Z,0.90
2018-01-18T10:09:45.350Z,0.80
2018-01-18T10:12:13.747Z,0.80
2018-01-18T10:14:41.396Z,0.80
2018-01-18T10:17:09.741Z,0.70
2018-01-18T10:19:37.350Z,0.70
2018-01-18T10:22:05.707Z,0.60
2018-01-18T10:24:33.295Z,0.60
2018-01-18T10:27:01.650Z,0.60
2018-01-18T10:29:29.255Z,0.70
2018-01-18T10:31:57.603Z,0.80
2018-01-18T10:34:25.190Z,0.70
2018-01-18T10:36:53.561Z,0.80
2018-01-18T10:39:21.959Z,0.90
2018-01-18T10:41:49.572Z,0.90
2018-01-18T10:44:17.182Z,0.90
2018-01-18T10:46:45.604Z,1.00
2018-01-18T10:49:13.971Z,1.10
2018-01-18T10:51:41.566Z,1.10
2018-01-18T10:54:09.174Z,1.10
2018-01-18T10:56:36.779Z,1.20
2018-01-18T10:59:04.376Z,1.20
2018-01-18T11:01:31.960Z,1.20
2018-01-18T11:03:59.566Z,1.10
2018-01-18T11:06:27.236Z,1.00
2018-01-18T11:08:55.626Z,1.00
2018-01-18T11:11:23.227Z,1.00
2018-01-18T11:13:50.810Z,1.00
2018-01-18T11:16:18.395Z,1.00
2018-01-18T11:18:45.982Z,0.90
2018-01-18T11:21:13.557Z,1.00
2018-01-18T11:23:41.158Z,0.90
2018-01-18T11:26:12.324Z,0.90
2018-01-18T11:28:43.972Z,1.00
2018-01-18T11:31:12.538Z,1.00
2018-01-18T11:33:40.115Z,1.10
2018-01-18T11:36:07.871Z,1.20
2018-01-18T11:38:35.477Z,1.30
2018-01-18T11:41:03.916Z,1.30
2018-01-18T11:43:31.511Z,1.30
2018-01-18T11:45:59.151Z,1.30
2018-01-18T11:48:26.784Z,1.20
2018-01-18T11:50:54.408Z,1.20
2018-01-18T11:53:22.795Z,1.20
2018-01-18T11:55:51.197Z,1.20
2018-01-18T11:58:18.849Z,1.20
2018-01-18T12:00:47.356Z,1.40
2018-01-18T12:03:14.979Z,1.40
2018-01-18T12:05:43.055Z,1.40
2018-01-18T12:08:12.960Z,1.30
2018-01-18T12:10:40.564Z,1.30
2018-01-18T12:13:08.976Z,1.50
2018-01-18T12:15:36.635Z,1.40
2018-01-18T12:18:04.259Z,1.50
2018-01-18T12:20:31.908Z,1.60
2018-01-18T12:22:59.555Z,1.70
2018-01-18T12:25:27.156Z,1.90
2018-01-18T12:27:54.779Z,1.90
2018-01-18T12:30:22.363Z,2.00
2018-01-18T12:32:49.947Z,2.00
2018-01-18T12:35:17.555Z,2.00
2018-01-18T12:37:45.156Z,2.10
2018-01-18T12:40:12.782Z,2.20
2018-01-18T12:42:40.400Z,2.30
2018-01-18T12:45:08.034Z,2.30
2018-01-18T12:47:35.628Z,2.30
2018-01-18T12:50:03.273Z,2.20
2018-01-18T12:52:30.867Z,2.20
2018-01-18T12:54:58.464Z,2.20
2018-01-18T12:57:26.822Z,2.30
2018-01-18T12:59:54.492Z,2.30
2018-01-18T13:02:22.880Z,2.20
2018-01-18T13:04:50.474Z,2.20
2018-01-18T13:07:18.099Z,2.20
2018-01-18T13:09:45.728Z,2.10
2018-01-18T13:12:13.423Z,2.10
2018-01-18T13:14:41.135Z,2.00
2018-01-18T13:17:08.735Z,2.00
2018-01-18T13:19:36.353Z,2.10
2018-01-18T13:22:03.971Z,2.20
2018-01-18T13:24:31.587Z,2.20
2018-01-18T13:26:59.224Z,2.20
2018-01-18T13:29:26.869Z,2.30
2018-01-18T13:31:54.495Z,2.20
2018-01-18T13:34:22.257Z,2.30
2018-01-18T13:36:49.886Z,2.40
2018-01-18T13:39:17.525Z,2.40
2018-01-18T13:41:45.141Z,2.40
2018-01-18T13:44:13.511Z,2.40
2018-01-18T13:46:41.891Z,2.40
2018-01-18T13:49:09.560Z,2.40
2018-01-18T13:51:37.188Z,2.40
2018-01-18T13:54:04.951Z,2.50
2018-01-18T13:56:32.538Z,2.40
2018-01-18T13:59:00.135Z,2.60
2018-01-18T14:01:28.494Z,2.80
2018-01-18T14:03:56.087Z,2.80
2018-01-18T14:06:24.446Z,3.10
2018-01-18T14:08:52.192Z,3.10
2018-01-18T14:11:20.882Z,3.00
2018-01-18T14:13:48.477Z,2.90
2018-01-18T14:16:16.854Z,3.00
2018-01-18T14:18:44.451Z,2.90
2018-01-18T14:21:12.070Z,2.80
2018-01-18T14:23:39.671Z,2.80
2018-01-18T14:26:08.023Z,2.70
2018-01-18T14:28:35.623Z,2.70
2018-01-18T14:31:03.991Z,2.90
2018-01-18T14:33:32.531Z,2.90
2018-01-18T14:36:01.222Z,2.80
2018-01-18T14:38:28.916Z,2.80
2018-01-18T14:40:56.542Z,2.80
2018-01-18T14:43:24.341Z,2.80
2018-01-18T14:45:53.009Z,2.80
2018-01-18T14:48:20.630Z,2.90
2018-01-18T14:50:48.295Z,3.00
2018-01-18T14:53:16.684Z,3.00
2018-01-18T14:55:44.362Z,2.90
2018-01-18T14:58:12.095Z,2.80
2018-01-18T15:00:39.712Z,2.80
2018-01-18T15:03:10.298Z,2.90
2018-01-18T15:05:38.663Z,2.90
2018-01-18T15:08:06.284Z,2.90
2018-01-18T15:10:33.895Z,2.80
2018-01-18T15:13:01.494Z,2.90
2018-01-18T15:15:29.846Z,2.70
2018-01-18T15:17:57.435Z,2.70
2018-01-18T15:20:25.031Z,2.60
2018-01-18T15:22:52.842Z,2.50
2018-01-18T15:25:20.426Z,2.40
2018-01-18T15:27:48.038Z,2.30
2018-01-18T15:30:16.031Z,2.30
2018-01-18T15:32:43.622Z,2.20
2018-01-18T15:35:11.230Z,2.10
2018-01-18T15:37:38.858Z,2.10
2018-01-18T15:40:06.759Z,2.10
2018-01-18T15:42:34.438Z,2.20
2018-01-18T15:45:02.145Z,2.40
2018-01-18T15:47:30.002Z,2.50
2018-01-18T15:49:57.856Z,2.70
2018-01-18T15:52:25.843Z,2.60
2018-01-18T15:54:53.703Z,2.70
2018-01-18T15:57:21.282Z,3.30
2018-01-18T15:59:48.861Z,3.60
2018-01-18T16:02:16.507Z,3.80
2018-01-18T16:04:48.078Z,3.80
2018-01-18T16:07:15.670Z,3.80
2018-01-18T16:09:43.301Z,3.60
2018-01-18T16:12:13.637Z,3.70
2018-01-18T16:14:41.306Z,3.80
2018-01-18T16:17:09.467Z,4.00
2018-01-18T16:19:37.423Z,3.80
2018-01-18T16:22:05.397Z,3.90
2018-01-18T16:24:34.519Z,3.80
2018-01-18T16:27:02.126Z,3.90
2018-01-18T16:29:29.770Z,4.20
2018-01-18T16:31:57.378Z,4.20
2018-01-18T16:34:24.971Z,4.00
2018-01-18T16:36:54.828Z,4.10
2018-01-18T16:39:23.519Z,4.10
2018-01-18T16:41:51.107Z,3.90
2018-01-18T16:44:19.504Z,4.00
2018-01-18T16:46:50.168Z,4.00
2018-01-18T16:49:20.659Z,4.00
2018-01-18T16:51:48.362Z,4.00
2018-01-18T16:54:16.005Z,4.00
2018-01-18T16:56:43.609Z,4.00
2018-01-18T16:59:17.906Z,4.10
2018-01-18T17:01:52.738Z,3.90
2018-01-18T17:04:21.402Z,3.80
2018-01-18T17:06:52.620Z,4.00
2018-01-18T17:09:20.314Z,4.00
2018-01-18T17:11:47.911Z,3.90
2018-01-18T17:14:17.400Z,3.90
2018-01-18T17:16:45.057Z,3.80
2018-01-18T17:19:13.590Z,3.90
2018-01-18T17:21:41.210Z,3.90
2018-01-18T17:24:08.819Z,3.90
2018-01-18T17:26:36.407Z,3.90
2018-01-18T17:29:04.023Z,3.80
2018-01-18T17:31:40.762Z,3.80
2018-01-18T17:34:10.170Z,3.70
2018-01-18T17:36:38.548Z,3.60
2018-01-18T17:39:09.861Z,3.60
2018-01-18T17:41:38.959Z,3.60
2018-01-18T17:44:06.539Z,3.60
2018-01-18T17:46:34.130Z,3.70
2018-01-18T17:49:02.488Z,3.50
2018-01-18T17:51:30.859Z,3.50
2018-01-18T17:53:59.643Z,3.50
2018-01-18T17:56:28.357Z,3.50
2018-01-18T17:58:56.630Z,3.40
2018-01-18T18:01:24.215Z,3.50
2018-01-18T18:03:52.570Z,3.40
2018-01-18T18:06:20.170Z,3.40
2018-01-18T18:08:48.990Z,3.40
2018-01-18T18:11:16.570Z,3.40
2018-01-18T18:13:44.146Z,3.30
2018-01-18T18:16:15.760Z,3.30
2018-01-18T18:18:44.265Z,3.20
2018-01-18T18:21:15.106Z,3.20
2018-01-18T18:23:42.689Z,3.20
2018-01-18T18:26:10.405Z,3.20
2018-01-18T18:28:39.078Z,3.10
2018-01-18T18:31:06.663Z,3.10
2018-01-18T18:33:35.910Z,3.20
2018-01-18T18:36:03.496Z,3.20
2018-01-18T18:38:32.043Z,3.20
2018-01-18T18:41:01.047Z,3.20
2018-01-18T18:43:29.103Z,3.20
2018-01-18T18:45:56.695Z,3.10
2018-01-18T18:48:25.391Z,3.10
2018-01-18T18:50:53.010Z,3.10
2018-01-18T18:53:21.350Z,3.20
2018-01-18T18:55:49.160Z,3.10
2018-01-18T18:58:16.819Z,3.10
2018-01-18T19:00:44.454Z,3.10
2018-01-18T19:03:12.078Z,3.10
2018-01-18T19:05:39.663Z,3.10
2018-01-18T19:08:07.240Z,3.00
2018-01-18T19:10:34.820Z,3.00
2018-01-18T19:13:02.412Z,2.90
2018-01-18T19:15:29.986Z,2.90
2018-01-18T19:17:57.569Z,2.90
2018-01-18T19:20:25.146Z,2.90
2018-01-18T19:22:52.731Z,2.80
2018-01-18T19:25:20.351Z,2.80
2018-01-18T19:27:47.941Z,2.70
2018-01-18T19:30:15.529Z,2.70
2018-01-18T19:32:43.139Z,2.70
2018-01-18T19:35:10.740Z,2.70
2018-01-18T19:37:38.342Z,2.70
2018-01-18T19:40:05.987Z,2.60
2018-01-18T19:42:33.572Z,2.70
2018-01-18T19:45:01.185Z,2.60
2018-01-18T19:47:28.759Z,2.60
2018-01-18T19:49:56.346Z,2.60
2018-01-18T19:52:24.787Z,2.50
2018-01-18T19:54:52.375Z,2.50
2018-01-18T19:57:20.975Z,2.50
2018-01-18T19:59:48.552Z,2.60
2018-01-18T20:02:16.194Z,2.60
2018-01-18T20:04:44.799Z,2.50
2018-01-18T20:07:12.552Z,2.50
2018-01-18T20:09:40.261Z,2.40
2018-01-18T20:12:09.444Z,2.30
2018-01-18T20:14:37.048Z,2.30
2018-01-18T20:17:05.400Z,2.30
2018-01-18T20:19:35.010Z,2.30
2018-01-18T20:22:02.959Z,2.30
2018-01-18T20:24:31.316Z,2.30
2018-01-18T20:27:00.709Z,2.30
2018-01-18T20:29:28.318Z,2.20
2018-01-18T20:31:55.902Z,2.20
2018-01-18T20:34:23.487Z,2.20
2018-01-18T20:36:51.846Z,2.20
2018-01-18T20:39:19.489Z,2.10
2018-01-18T20:41:47.074Z,2.10
2018-01-18T20:44:14.678Z,2.10
2018-01-18T20:46:42.259Z,2.10
2018-01-18T20:49:09.838Z,2.10
2018-01-18T20:51:37.423Z,2.00
2018-01-18T20:54:05.014Z,2.00
2018-01-18T20:56:33.357Z,2.00
2018-01-18T20:59:02.873Z,2.00
2018-01-18T21:01:30.452Z,2.00
2018-01-18T21:03:58.030Z,2.00
2018-01-18T21:06:25.618Z,2.00
2018-01-18T21:08:54.015Z,1.90
2018-01-18T21:11:21.595Z,1.90
2018-01-18T21:13:49.203Z,1.90
2018-01-18T21:16:16.811Z,1.90
2018-01-18T21:18:44.390Z,1.90
2018-01-18T21:21:12.000Z,1.90
2018-01-18T21:23:39.594Z,1.90
2018-01-18T21:26:07.939Z,1.80
2018-01-18T21:28:35.519Z,1.80
2018-01-18T21:31:03.911Z,1.90
2018-01-18T21:33:32.257Z,1.90
2018-01-18T21:35:59.842Z,1.80
2018-01-18T21:38:27.443Z,1.90
2018-01-18T21:40:55.023Z,1.90
2018-01-18T21:43:22.611Z,1.90
2018-01-18T21:45:50.201Z,1.90
2018-01-18T21:48:17.790Z,1.80
2018-01-18T21:50:45.383Z,1.90
2018-01-18T21:53:12.958Z,1.80
2018-01-18T21:55:40.651Z,1.80
2018-01-18T21:58:08.235Z,1.80
2018-01-18T22:00:36.059Z,1.80
2018-01-18T22:03:03.634Z,1.80
2018-01-18T22:05:31.347Z,1.80
2018-01-18T22:07:59.698Z,1.80
2018-01-18T22:10:27.279Z,1.80
2018-01-18T22:12:54.956Z,1.80
2018-01-18T22:15:23.310Z,1.70
2018-01-18T22:17:50.885Z,1.70
2018-01-18T22:20:18.515Z,1.70
2018-01-18T22:22:46.206Z,1.70
2018-01-18T22:25:13.783Z,1.70
2018-01-18T22:27:41.367Z,1.70
2018-01-18T22:30:09.710Z,1.70
2018-01-18T22:32:37.290Z,1.70
2018-01-18T22:35:05.042Z,1.70
2018-01-18T22:37:32.630Z,1.70
2018-01-18T22:40:00.230Z,1.70
2018-01-18T22:42:27.810Z,1.70
2018-01-18T22:44:55.387Z,1.70
2018-01-18T22:47:23.575Z,1.70
2018-01-18T22:49:52.141Z,1.70
2018-01-18T22:52:19.940Z,1.70
2018-01-18T22:54:47.523Z,1.70
2018-01-18T22:57:15.179Z,1.60
2018-01-18T22:59:42.762Z,1.60
2018-01-18T23:02:11.114Z,1.60
2018-01-18T23:04:38.930Z,1.60
2018-01-18T23:07:07.281Z,1.60
2018-01-18T23:09:34.886Z,1.60
2018-01-18T23:12:02.497Z,1.50
2018-01-18T23:14:30.118Z,1.50
2018-01-18T23:16:57.959Z,1.50
2018-01-18T23:19:25.702Z,1.40
2018-01-18T23:21:53.330Z,1.50
2018-01-18T23:24:20.993Z,1.40
2018-01-18T23:26:48.703Z,1.30
2018-01-18T23:29:17.371Z,1.30
2018-01-18T23:31:45.242Z,1.30
2018-01-18T23:34:12.874Z,1.20
2018-01-18T23:36:40.459Z,1.10
2018-01-18T23:39:08.038Z,1.10
2018-01-18T23:41:35.614Z,1.00
2018-01-18T23:44:03.363Z,1.00
2018-01-18T23:46:30.948Z,0.90
2018-01-18T23:48:58.530Z,0.80
2018-01-18T23:51:26.446Z,0.80
2018-01-18T23:53:54.026Z,0.80
2018-01-18T23:56:21.606Z,0.80
2018-01-18T23:58:49.634Z,0.80
